createdAt,value
2023-01-03T00:01:33.977Z,100882.20
2023-01-03T00:04:08.361Z,100885.00
2023-01-03T00:06:46.224Z,100888.20
2023-01-03T00:09:22.538Z,100898.00
2023-01-03T00:12:14.897Z,100908.20
2023-01-03T00:14:48.836Z,100916.00
2023-01-03T00:17:22.441Z,100908.40
2023-01-03T00:19:56.126Z,100911.20
2023-01-03T00:22:33.617Z,100909.20
2023-01-03T00:25:08.592Z,100922.60
2023-01-03T00:27:42.318Z,100927.00
2023-01-03T00:30:17.226Z,100927.80
2023-01-03T00:32:50.888Z,100939.20
2023-01-03T00:35:24.541Z,100943.60
2023-01-03T00:37:58.289Z,100939.00
2023-01-03T00:40:32.094Z,100942.40
2023-01-03T00:43:23.517Z,100944.80
2023-01-03T00:45:57.391Z,100941.60
2023-01-03T00:48:31.434Z,100952.20
2023-01-03T00:51:12.621Z,100949.40
2023-01-03T00:53:48.267Z,100951.20
2023-01-03T00:56:24.636Z,100950.20
2023-01-03T00:58:59.186Z,100962.20
2023-01-03T01:01:43.938Z,100968.60
2023-01-03T01:04:23.809Z,100975.60
2023-01-03T01:07:01.224Z,100983.00
2023-01-03T01:09:38.462Z,100978.80
2023-01-03T01:12:12.238Z,100985.00
2023-01-03T01:14:46.295Z,100988.20
2023-01-03T01:17:22.838Z,100990.80
2023-01-03T01:19:57.058Z,100986.60
2023-01-03T01:22:30.891Z,100989.60
2023-01-03T01:25:05.433Z,100995.80
2023-01-03T01:27:39.164Z,100996.60
2023-01-03T01:30:13.709Z,100999.00
2023-01-03T01:32:47.310Z,101005.80
2023-01-03T01:35:21.504Z,101009.00
2023-01-03T01:37:55.160Z,101011.40
2023-01-03T01:40:28.977Z,101011.20
2023-01-03T01:43:30.049Z,101000.20
2023-01-03T01:46:12.497Z,101004.00
2023-01-03T01:48:46.398Z,101005.40
2023-01-03T01:51:22.341Z,101012.60
2023-01-03T01:53:59.761Z,101012.20
2023-01-03T01:56:39.685Z,101008.80
2023-01-03T01:59:15.247Z,101019.20
2023-01-03T02:01:52.671Z,101020.00
2023-01-03T02:04:32.129Z,101020.00
2023-01-03T02:07:07.884Z,101021.20
2023-01-03T02:09:41.599Z,101027.40
2023-01-03T02:12:46.219Z,101034.60
2023-01-03T02:15:37.764Z,101037.80
2023-01-03T02:18:32.725Z,101043.20
2023-01-03T02:21:41.706Z,101041.20
2023-01-03T02:25:10.747Z,101050.40
2023-01-03T02:28:22.723Z,101054.20
2023-01-03T02:31:06.939Z,101061.20
2023-01-03T02:33:56.718Z,101067.60
2023-01-03T02:36:51.695Z,101074.40
2023-01-03T02:39:41.003Z,101083.00
2023-01-03T02:42:42.893Z,101091.00
2023-01-03T02:45:22.722Z,101096.20
2023-01-03T02:48:05.822Z,101093.60
2023-01-03T02:50:49.941Z,101098.00
2023-01-03T02:53:34.722Z,101100.40
2023-01-03T02:56:16.808Z,101105.20
2023-01-03T02:59:00.716Z,101106.00
2023-01-03T03:01:37.811Z,101096.80
2023-01-03T03:04:13.725Z,101093.80
2023-01-03T03:07:00.698Z,101100.40
2023-01-03T03:09:56.731Z,101101.00
2023-01-03T03:12:54.027Z,101113.60
2023-01-03T03:23:41.557Z,101114.60
2023-01-03T03:26:22.198Z,101116.40
2023-01-03T03:29:04.569Z,101118.00
2023-01-03T03:31:44.328Z,101121.00
2023-01-03T03:34:23.567Z,101124.20
2023-01-03T03:37:05.496Z,101122.80
2023-01-03T03:39:57.865Z,101123.00
2023-01-03T03:43:03.205Z,101130.40
2023-01-03T03:45:46.313Z,101127.20
2023-01-03T03:48:24.523Z,101134.20
2023-01-03T03:51:07.468Z,101140.00
2023-01-03T03:53:47.851Z,101134.20
2023-01-03T03:56:28.355Z,101131.60
2023-01-03T03:59:08.331Z,101142.00
2023-01-03T04:01:45.331Z,101149.80
2023-01-03T04:04:28.482Z,101152.60
2023-01-03T04:07:03.295Z,101154.20
2023-01-03T04:09:37.227Z,101149.40
2023-01-03T04:12:11.454Z,101158.00
2023-01-03T04:14:45.497Z,101160.00
2023-01-03T04:17:19.366Z,101160.00
2023-01-03T04:19:53.072Z,101164.80
2023-01-03T04:22:27.757Z,101169.20
2023-01-03T04:25:01.683Z,101176.60
2023-01-03T04:27:36.052Z,101174.20
2023-01-03T04:30:12.687Z,101175.20
2023-01-03T04:32:46.491Z,101182.80
2023-01-03T04:35:20.276Z,101180.00
2023-01-03T04:37:53.953Z,101181.60
2023-01-03T04:40:27.776Z,101185.00
2023-01-03T04:43:19.023Z,101193.00
2023-01-03T04:45:54.107Z,101195.20
2023-01-03T04:48:28.285Z,101203.20
2023-01-03T04:51:03.274Z,101213.20
2023-01-03T04:53:37.141Z,101218.80
2023-01-03T04:56:12.371Z,101223.60
2023-01-03T04:58:46.145Z,101225.20
2023-01-03T05:01:20.149Z,101227.80
2023-01-03T05:03:58.308Z,101225.20
2023-01-03T05:06:32.331Z,101225.00
2023-01-03T05:09:06.108Z,101227.80
2023-01-03T05:11:39.935Z,101234.40
2023-01-03T05:14:14.970Z,101235.60
2023-01-03T05:16:49.679Z,101241.20
2023-01-03T05:19:23.465Z,101225.40
2023-01-03T05:22:14.884Z,101220.20
2023-01-03T05:25:06.044Z,101226.60
2023-01-03T05:27:39.925Z,101237.40
2023-01-03T05:30:15.330Z,101241.40
2023-01-03T05:32:49.012Z,101245.00
2023-01-03T05:35:22.643Z,101254.80
2023-01-03T05:37:58.528Z,101249.20
2023-01-03T05:40:36.271Z,101258.20
2023-01-03T05:43:13.443Z,101258.80
2023-01-03T05:45:52.267Z,101262.40
2023-01-03T05:48:27.228Z,101259.80
2023-01-03T05:51:02.405Z,101264.00
2023-01-03T05:53:36.189Z,101270.40
2023-01-03T05:56:11.186Z,101273.80
2023-01-03T05:58:47.430Z,101282.40
2023-01-03T06:01:22.068Z,101281.80
2023-01-03T06:03:56.179Z,101286.40
2023-01-03T06:06:30.669Z,101288.00
2023-01-03T06:09:05.046Z,101283.40
2023-01-03T06:11:40.130Z,101288.00
2023-01-03T06:14:14.387Z,101289.20
2023-01-03T06:17:06.292Z,101291.40
2023-01-03T06:19:40.162Z,101293.60
2023-01-03T06:22:14.680Z,101300.80
2023-01-03T06:24:48.701Z,101305.60
2023-01-03T06:27:22.415Z,101307.80
2023-01-03T06:29:59.687Z,101310.40
2023-01-03T06:32:33.692Z,101309.40
2023-01-03T06:35:08.343Z,101310.80
2023-01-03T06:37:42.410Z,101315.80
2023-01-03T06:40:17.300Z,101321.20
2023-01-03T06:42:51.728Z,101329.40
2023-01-03T06:45:44.296Z,101331.60
2023-01-03T06:48:36.640Z,101334.60
2023-01-03T06:51:32.243Z,101341.60
2023-01-03T06:54:06.514Z,101346.80
2023-01-03T06:56:40.506Z,101347.40
2023-01-03T06:59:14.242Z,101346.80
2023-01-03T07:01:49.801Z,101354.00
2023-01-03T07:04:25.944Z,101359.60
2023-01-03T07:07:00.307Z,101361.00
2023-01-03T07:09:34.202Z,101363.40
2023-01-03T07:12:22.547Z,101361.40
2023-01-03T07:14:56.238Z,101370.80
2023-01-03T07:17:31.065Z,101379.20
2023-01-03T07:20:05.003Z,101379.40
2023-01-03T07:22:38.701Z,101377.40
2023-01-03T07:25:13.338Z,101387.00
2023-01-03T07:27:58.724Z,101389.00
2023-01-03T07:30:40.759Z,101393.60
2023-01-03T07:33:17.302Z,101400.20
2023-01-03T07:35:52.337Z,101404.40
2023-01-03T07:38:26.577Z,101400.60
2023-01-03T07:41:03.123Z,101406.40
2023-01-03T07:43:40.087Z,101409.60
2023-01-03T07:46:17.505Z,101405.20
2023-01-03T07:48:54.357Z,101409.20
2023-01-03T07:51:32.309Z,101410.40
2023-01-03T07:54:07.575Z,101410.20
2023-01-03T07:56:42.016Z,101412.60
2023-01-03T07:59:17.215Z,101409.40
2023-01-03T08:01:51.546Z,101412.40
2023-01-03T08:04:27.138Z,101413.00
2023-01-03T08:07:01.218Z,101415.40
2023-01-03T08:09:53.088Z,101416.20
2023-01-03T08:12:44.465Z,101418.00
2023-01-03T08:15:21.172Z,101420.60
2023-01-03T08:17:54.954Z,101428.20
2023-01-03T08:20:28.767Z,101429.40
2023-01-03T08:23:03.501Z,101433.00
2023-01-03T08:25:37.331Z,101428.00
2023-01-03T08:28:12.937Z,101431.00
2023-01-03T08:30:51.609Z,101433.80
2023-01-03T08:33:28.134Z,101434.20
2023-01-03T08:36:07.394Z,101436.40
2023-01-03T08:38:48.861Z,101438.00
2023-01-03T08:41:29.226Z,101440.40
2023-01-03T08:44:08.720Z,101445.80
2023-01-03T08:46:53.221Z,101447.80
2023-01-03T08:49:27.571Z,101448.80
2023-01-03T08:52:02.639Z,101452.20
2023-01-03T08:54:39.458Z,101456.00
2023-01-03T08:57:14.064Z,101457.40
2023-01-03T08:59:48.566Z,101460.20
2023-01-03T09:02:22.655Z,101466.00
2023-01-03T09:04:57.820Z,101464.20
2023-01-03T09:07:32.356Z,101465.40
2023-01-03T09:10:07.441Z,101465.00
2023-01-03T09:12:41.877Z,101471.80
2023-01-03T09:15:16.430Z,101474.80
2023-01-03T09:17:50.733Z,101479.40
2023-01-03T09:20:25.512Z,101482.40
2023-01-03T09:23:00.032Z,101488.80
2023-01-03T09:25:37.362Z,101489.60
2023-01-03T09:28:12.487Z,101485.40
2023-01-03T09:30:46.504Z,101491.40
2023-01-03T09:33:20.664Z,101491.00
2023-01-03T09:35:57.183Z,101492.20
2023-01-03T09:38:32.046Z,101492.00
2023-01-03T09:41:10.039Z,101499.20
2023-01-03T09:43:48.606Z,101495.80
2023-01-03T09:46:25.773Z,101493.60
2023-01-03T09:49:01.251Z,101492.40
2023-01-03T09:51:57.872Z,101491.40
2023-01-03T09:54:56.941Z,101487.40
2023-01-03T09:57:53.801Z,101485.80
2023-01-03T10:00:57.033Z,101493.40
2023-01-03T10:03:52.231Z,101495.00
2023-01-03T10:06:44.539Z,101497.40
2023-01-03T10:09:36.257Z,101491.00
2023-01-03T10:12:27.503Z,101498.20
2023-01-03T10:15:19.650Z,101498.20
2023-01-03T10:18:08.483Z,101504.20
2023-01-03T10:20:50.039Z,101505.40
2023-01-03T10:23:25.030Z,101504.80
2023-01-03T10:25:59.159Z,101500.80
2023-01-03T10:28:41.749Z,101496.80
2023-01-03T10:31:33.657Z,101501.40
2023-01-03T10:34:13.244Z,101503.00
2023-01-03T10:36:50.674Z,101495.40
2023-01-03T10:39:34.073Z,101491.20
2023-01-03T10:42:10.267Z,101492.20
2023-01-03T10:45:03.317Z,101493.00
2023-01-03T10:47:37.606Z,101497.00
2023-01-03T10:50:26.035Z,101494.00
2023-01-03T10:53:07.177Z,101482.00
2023-01-03T10:55:51.089Z,101489.80
2023-01-03T10:58:36.160Z,101490.60
2023-01-03T11:01:26.423Z,101490.80
2023-01-03T11:04:20.534Z,101488.80
2023-01-03T11:07:13.877Z,101490.60
2023-01-03T11:09:54.102Z,101483.80
2023-01-03T11:12:38.227Z,101480.80
2023-01-03T11:15:23.029Z,101479.40
2023-01-03T11:18:02.675Z,101478.60
2023-01-03T11:20:48.828Z,101480.60
2023-01-03T11:23:37.708Z,101480.80
2023-01-03T11:26:29.350Z,101474.40
2023-01-03T11:29:25.547Z,101477.60
2023-01-03T11:32:22.755Z,101483.40
2023-01-03T11:35:35.740Z,101484.00
2023-01-03T11:38:29.435Z,101470.60
2023-01-03T11:41:22.441Z,101466.40
2023-01-03T11:44:40.122Z,101467.60
2023-01-03T11:47:28.990Z,101468.60
2023-01-03T11:50:22.071Z,101471.40
2023-01-03T11:53:05.442Z,101458.20
2023-01-03T11:56:08.351Z,101460.20
2023-01-03T11:59:09.251Z,101456.60
2023-01-03T12:02:32.582Z,101465.20
2023-01-03T12:05:35.367Z,101462.60
2023-01-03T12:08:31.349Z,101468.20
2023-01-03T12:11:18.887Z,101471.20
2023-01-03T12:14:05.439Z,101462.00
2023-01-03T12:16:47.207Z,101464.20
2023-01-03T12:19:36.164Z,101463.00
2023-01-03T12:22:24.601Z,101459.40
2023-01-03T12:25:07.075Z,101460.00
2023-01-03T12:27:48.038Z,101458.20
2023-01-03T12:30:39.559Z,101454.80
2023-01-03T12:33:31.071Z,101453.00
2023-01-03T12:36:22.806Z,101454.40
2023-01-03T12:39:07.860Z,101460.20
2023-01-03T12:41:57.324Z,101465.60
2023-01-03T12:44:39.854Z,101469.60
2023-01-03T12:47:28.942Z,101466.80
2023-01-03T12:50:14.193Z,101461.00
2023-01-03T12:53:01.795Z,101457.20
2023-01-03T12:55:59.158Z,101455.80
2023-01-03T12:58:51.706Z,101451.00
2023-01-03T13:01:37.970Z,101455.40
2023-01-03T13:04:23.792Z,101451.00
2023-01-03T13:07:07.371Z,101451.60
2023-01-03T13:09:46.599Z,101452.00
2023-01-03T13:12:26.026Z,101460.20
2023-01-03T13:15:16.299Z,101467.20
2023-01-03T13:17:51.695Z,101464.20
2023-01-03T13:20:38.044Z,101460.00
2023-01-03T13:23:58.266Z,101459.60
2023-01-03T13:26:33.454Z,101462.40
2023-01-03T13:29:45.503Z,101458.80
2023-01-03T13:32:32.943Z,101465.20
2023-01-03T13:35:37.330Z,101463.80
2023-01-03T13:38:27.359Z,101463.20
2023-01-03T13:41:19.948Z,101466.40
2023-01-03T13:43:57.165Z,101461.60
2023-01-03T13:46:35.932Z,101463.60
2023-01-03T13:49:19.222Z,101467.40
2023-01-03T13:51:58.370Z,101464.60
2023-01-03T13:54:58.584Z,101471.20
2023-01-03T13:57:52.805Z,101475.00
2023-01-03T14:00:28.261Z,101478.20
2023-01-03T14:03:48.709Z,101480.00
2023-01-03T14:06:56.716Z,101485.80
2023-01-03T14:09:55.713Z,101492.20
2023-01-03T14:13:11.796Z,101492.60
2023-01-03T14:15:47.129Z,101497.60
2023-01-03T14:18:28.701Z,101503.20
2023-01-03T14:21:12.308Z,101518.60
2023-01-03T14:24:05.641Z,101521.20
2023-01-03T14:26:40.155Z,101512.20
2023-01-03T14:29:22.016Z,101503.00
2023-01-03T14:32:00.423Z,101503.80
2023-01-03T14:34:38.436Z,101506.80
2023-01-03T14:37:19.005Z,101514.60
2023-01-03T14:40:00.870Z,101520.00
2023-01-03T14:42:34.717Z,101514.60
2023-01-03T14:45:17.614Z,101514.20
2023-01-03T14:47:56.129Z,101514.80
2023-01-03T14:50:33.587Z,101515.80
2023-01-03T14:53:07.342Z,101519.20
2023-01-03T14:55:42.460Z,101523.60
2023-01-03T14:58:40.773Z,101523.40
2023-01-03T15:01:17.522Z,101527.40
2023-01-03T15:03:57.135Z,101520.80
2023-01-03T15:06:34.601Z,101527.20
2023-01-03T15:09:25.348Z,101532.20
2023-01-03T15:12:02.529Z,101544.20
2023-01-03T15:14:39.616Z,101548.40
2023-01-03T15:17:25.596Z,101556.00
2023-01-03T15:20:00.323Z,101554.60
2023-01-03T15:22:42.338Z,101557.80
2023-01-03T15:25:27.640Z,101564.80
2023-01-03T15:28:27.156Z,101561.80
2023-01-03T15:31:17.481Z,101567.00
2023-01-03T15:34:04.675Z,101568.60
2023-01-03T15:36:38.516Z,101568.60
2023-01-03T15:39:20.760Z,101572.20
2023-01-03T15:42:43.355Z,101579.20
2023-01-03T15:45:24.269Z,101591.40
2023-01-03T15:48:03.456Z,101589.40
2023-01-03T15:50:50.626Z,101596.40
2023-01-03T15:53:43.234Z,101596.40
2023-01-03T15:56:24.660Z,101597.20
2023-01-03T15:59:02.094Z,101596.20
2023-01-03T16:01:36.165Z,101602.80
2023-01-03T16:04:10.367Z,101608.20
2023-01-03T16:06:44.117Z,101616.40
2023-01-03T16:09:18.512Z,101618.80
2023-01-03T16:11:59.736Z,101620.80
2023-01-03T16:14:40.508Z,101624.40
2023-01-03T16:17:24.624Z,101628.20
2023-01-03T16:20:02.883Z,101629.60
2023-01-03T16:22:38.475Z,101635.60
2023-01-03T16:25:20.585Z,101628.20
2023-01-03T16:27:54.472Z,101630.20
2023-01-03T16:30:28.674Z,101634.60
2023-01-03T16:33:02.395Z,101636.20
2023-01-03T16:35:37.165Z,101642.00
2023-01-03T16:38:15.601Z,101641.80
2023-01-03T16:40:50.305Z,101639.60
2023-01-03T16:43:24.482Z,101642.80
2023-01-03T16:46:02.318Z,101647.80
2023-01-03T16:48:43.841Z,101643.40
2023-01-03T16:51:26.033Z,101641.00
2023-01-03T16:54:04.097Z,101647.00
2023-01-03T16:56:38.019Z,101644.60
2023-01-03T16:59:17.094Z,101640.60
2023-01-03T17:01:51.675Z,101652.60
2023-01-03T17:04:25.530Z,101648.00
2023-01-03T17:07:02.832Z,101646.40
2023-01-03T17:09:40.419Z,101650.20
2023-01-03T17:12:18.701Z,101654.00
2023-01-03T17:14:53.369Z,101660.20
2023-01-03T17:17:27.654Z,101661.00
2023-01-03T17:20:05.357Z,101660.20
2023-01-03T17:22:42.271Z,101660.00
2023-01-03T17:25:16.050Z,101659.40
2023-01-03T17:27:57.181Z,101662.80
2023-01-03T17:30:31.812Z,101667.80
2023-01-03T17:33:06.074Z,101668.00
2023-01-03T17:35:42.813Z,101662.00
2023-01-03T17:38:27.239Z,101667.00
2023-01-03T17:41:01.491Z,101672.60
2023-01-03T17:43:35.237Z,101676.60
2023-01-03T17:46:38.330Z,101678.60
2023-01-03T17:49:26.130Z,101685.80
2023-01-03T17:52:06.363Z,101688.60
2023-01-03T17:54:42.811Z,101690.60
2023-01-03T17:57:17.419Z,101690.40
2023-01-03T17:59:52.025Z,101692.20
2023-01-03T18:02:28.936Z,101697.80
2023-01-03T18:05:16.473Z,101694.00
2023-01-03T18:07:56.182Z,101706.00
2023-01-03T18:10:45.797Z,101703.00
2023-01-03T18:13:28.103Z,101708.00
2023-01-03T18:16:02.260Z,101710.60
2023-01-03T18:18:36.406Z,101711.80
2023-01-03T18:21:22.599Z,101713.20
2023-01-03T18:24:00.731Z,101709.20
2023-01-03T18:26:40.975Z,101712.40
2023-01-03T18:29:18.920Z,101708.20
2023-01-03T18:31:53.245Z,101706.40
2023-01-03T18:34:27.339Z,101709.60
2023-01-03T18:37:01.721Z,101705.20
2023-01-03T18:39:36.060Z,101708.00
2023-01-03T18:42:32.269Z,101708.60
2023-01-03T18:45:07.225Z,101703.20
2023-01-03T18:47:41.443Z,101711.40
2023-01-03T18:50:22.343Z,101707.20
2023-01-03T18:52:57.276Z,101714.40
2023-01-03T18:55:35.275Z,101712.80
2023-01-03T18:58:24.224Z,101716.40
2023-01-03T19:00:58.298Z,101718.60
2023-01-03T19:03:35.933Z,101727.40
2023-01-03T19:06:21.147Z,101729.00
2023-01-03T19:08:55.416Z,101735.60
2023-01-03T19:11:35.279Z,101725.00
2023-01-03T19:14:11.220Z,101730.20
2023-01-03T19:16:45.782Z,101720.60
2023-01-03T19:19:20.153Z,101719.20
2023-01-03T19:21:54.013Z,101720.00
2023-01-03T19:24:39.054Z,101728.80
2023-01-03T19:27:21.049Z,101721.40
2023-01-03T19:29:56.280Z,101723.00
2023-01-03T19:32:33.264Z,101726.20
2023-01-03T19:35:15.906Z,101729.00
2023-01-03T19:37:49.979Z,101724.60
2023-01-03T19:40:30.108Z,101726.20
2023-01-03T19:43:05.601Z,101725.20
2023-01-03T19:45:42.076Z,101731.40
2023-01-03T19:48:22.465Z,101731.00
2023-01-03T19:50:56.810Z,101728.60
2023-01-03T19:53:30.883Z,101732.80
2023-01-03T19:56:08.258Z,101733.80
2023-01-03T19:58:45.250Z,101735.20
2023-01-03T20:01:21.377Z,101745.60
2023-01-03T20:03:56.157Z,101741.40
2023-01-03T20:06:30.168Z,101740.80
2023-01-03T20:09:03.976Z,101741.80
2023-01-03T20:11:38.017Z,101730.80
2023-01-03T20:14:23.497Z,101727.00
2023-01-03T20:16:57.430Z,101730.20
2023-01-03T20:19:31.907Z,101733.00
2023-01-03T20:22:06.176Z,101734.80
2023-01-03T20:24:40.714Z,101734.00
2023-01-03T20:27:17.807Z,101726.80
2023-01-03T20:29:52.011Z,101736.40
2023-01-03T20:32:27.004Z,101723.60
2023-01-03T20:35:18.527Z,101731.80
2023-01-03T20:37:58.494Z,101729.00
2023-01-03T20:40:33.147Z,101728.80
2023-01-03T20:43:07.480Z,101726.60
2023-01-03T20:45:42.178Z,101727.60
2023-01-03T20:48:25.108Z,101725.80
2023-01-03T20:51:00.281Z,101730.00
2023-01-03T20:53:35.609Z,101720.60
2023-01-03T20:56:15.317Z,101725.60
2023-01-03T20:58:49.316Z,101727.00
2023-01-03T21:01:23.409Z,101731.40
2023-01-03T21:03:57.945Z,101732.60
2023-01-03T21:06:34.515Z,101726.40
2023-01-03T21:09:09.180Z,101731.40
2023-01-03T21:11:43.411Z,101729.80
2023-01-03T21:14:17.414Z,101737.00
2023-01-03T21:16:52.050Z,101738.00
2023-01-03T21:19:27.306Z,101731.00
2023-01-03T21:22:01.318Z,101733.20
2023-01-03T21:24:38.863Z,101738.80
2023-01-03T21:27:13.735Z,101737.40
2023-01-03T21:29:48.000Z,101732.00
2023-01-03T21:32:22.543Z,101739.40
2023-01-03T21:34:56.608Z,101733.80
2023-01-03T21:37:30.504Z,101734.80
2023-01-03T21:40:04.262Z,101731.80
2023-01-03T21:43:03.045Z,101731.00
2023-01-03T21:45:42.118Z,101732.00
2023-01-03T21:48:18.720Z,101734.80
2023-01-03T21:50:53.145Z,101729.40
2023-01-03T21:53:27.898Z,101739.00
2023-01-03T21:56:02.102Z,101738.60
2023-01-03T21:58:36.269Z,101742.00
2023-01-03T22:01:20.248Z,101743.00
2023-01-03T22:04:12.394Z,101743.20
2023-01-03T22:06:47.241Z,101751.20
2023-01-03T22:09:44.818Z,101750.60
2023-01-03T22:12:19.657Z,101749.80
2023-01-03T22:14:53.541Z,101751.80
2023-01-03T22:17:27.906Z,101746.00
2023-01-03T22:20:01.783Z,101745.80
2023-01-03T22:22:37.215Z,101754.80
2023-01-03T22:25:15.781Z,101751.80
2023-01-03T22:27:50.782Z,101751.40
2023-01-03T22:30:24.998Z,101755.20
2023-01-03T22:33:00.379Z,101752.80
2023-01-03T22:35:34.111Z,101751.20
2023-01-03T22:38:08.218Z,101754.20
2023-01-03T22:40:42.077Z,101754.40
2023-01-03T22:43:15.766Z,101753.00
2023-01-03T22:45:50.111Z,101757.60
2023-01-03T22:48:23.956Z,101748.80
2023-01-03T22:50:57.633Z,101745.40
2023-01-03T22:53:31.395Z,101749.00
2023-01-03T22:56:07.235Z,101753.20
2023-01-03T22:58:41.823Z,101757.00
2023-01-03T23:01:18.713Z,101755.00
2023-01-03T23:03:52.733Z,101751.40
2023-01-03T23:06:26.861Z,101753.00
2023-01-03T23:09:01.444Z,101751.80
2023-01-03T23:11:54.162Z,101754.60
2023-01-03T23:14:29.137Z,101749.00
2023-01-03T23:17:24.194Z,101754.40
2023-01-03T23:19:58.177Z,101745.00
2023-01-03T23:22:31.866Z,101739.60
2023-01-03T23:25:06.069Z,101749.60
2023-01-03T23:27:39.981Z,101752.40
2023-01-03T23:30:19.633Z,101748.20
2023-01-03T23:32:53.341Z,101742.80
2023-01-03T23:35:27.055Z,101740.60
2023-01-03T23:38:01.050Z,101738.60
2023-01-03T23:40:34.750Z,101747.80
2023-01-03T23:43:08.460Z,101742.20
2023-01-03T23:45:42.239Z,101740.80
2023-01-03T23:48:16.058Z,101741.80
2023-01-03T23:50:49.887Z,101738.60
2023-01-03T23:53:24.106Z,101732.00
2023-01-03T23:55:58.318Z,101729.00
2023-01-03T23:58:32.264Z,101727.60
